Portada
METAR-TAF:

METAR-TAF

Aeroports :

Saint-Pierre, Saint-Pierre i Miquelon

latitud: 46-46N, longitud: 056-10W, altitud: 3 m

Observació

L'informe es va fer fa 35 minuts, a les 20:00 UTC
Vent 19 kt del Sud/Sud-Est
Temperatura 9°C
Humitat 100%
Pressió 1011 hPa
Visibilitat: 0350 m
boira

METAR: LFVP 012000Z 16019KT 0350 R26/0450N FG VV/// 09/09 Q1011 NOSIG

Hora: 18:35 (20:35 UTC)

Pronòstic

L'informe es va fer fa 3 hores i 35 minuts, a les 17:00 UTC
Pronòstic vàlid del 01 a les 18 UTC al 02 a les 03 UTC
Vent 20 kt del Sud
Visibilitat: 0400 m
plugim, pluja, boira
Probabilitat 30% :
Temporalment
l' 01 a les 18 UTC al 02 a les 03 UTC
Visibilitat: 2500 m
Cel cobert a una alçada de 300 ft
pluja, boirina
Evolucionant progressivament
l' 02 a les 00 UTC al 02 a les 03 UTC
Vent 25 kt del Sud/Sud-Est amb ràfegues de 35 kt

TAF: LFVP 011700Z 0118/0203 17020KT 0400 -DZRA FG VV/// PROB30 TEMPO 0118/0203 2500 RA BR OVC003 BECMG 0200/0203 16025G35KT

Observacions i pronòstics meteorològics de més de 4000 aeroports (METAR i TAF).

Les estacions disponibles són els punts grocs i vermells al mapa.

Posi el ratolí al punt desitjat per veure el nom de l'estació.

Feu clic per veure les observacions i els pronòstics meteorològics.

Per canviar el mapa: feu clic els botons verds amb una creu de color negre per apropar; al botó verd amb un guió per allunyar la imatge; o en les fletxes verdes per a mapes adjacents.


METAR-TAF: